createdAt,value
2022-09-26T00:01:38.216Z,6.13
2022-09-26T00:04:15.800Z,5.33
2022-09-26T00:06:43.560Z,5.50
2022-09-26T00:09:10.524Z,5.40
2022-09-26T00:11:37.482Z,4.43
2022-09-26T00:14:09.160Z,5.77
2022-09-26T00:16:36.161Z,5.00
2022-09-26T00:19:05.810Z,5.43
2022-09-26T00:21:33.233Z,5.50
2022-09-26T00:24:01.898Z,5.10
2022-09-26T00:26:32.181Z,5.03
2022-09-26T00:29:04.483Z,4.60
2022-09-26T00:31:35.650Z,4.90
2022-09-26T00:34:05.728Z,4.80
2022-09-26T00:36:38.090Z,4.80
2022-09-26T00:39:08.482Z,4.83
2022-09-26T00:41:37.188Z,4.63
2022-09-26T00:44:43.298Z,4.20
2022-09-26T00:47:28.608Z,3.43
2022-09-26T00:50:06.242Z,3.90
2022-09-26T00:52:42.664Z,3.20
2022-09-26T00:55:14.237Z,2.97
2022-09-26T00:57:59.883Z,3.20
2022-09-26T01:00:27.556Z,3.67
2022-09-26T01:02:54.706Z,3.33
2022-09-26T01:05:25.757Z,3.20
2022-09-26T01:07:56.618Z,3.83
2022-09-26T01:10:24.626Z,3.23
2022-09-26T01:12:52.710Z,2.57
2022-09-26T01:15:19.750Z,2.27
2022-09-26T01:17:50.607Z,1.97
2022-09-26T01:20:28.423Z,1.97
2022-09-26T01:23:25.822Z,2.10
2022-09-26T01:26:11.578Z,2.17
2022-09-26T01:28:56.737Z,2.07
2022-09-26T01:32:14.470Z,2.10
2022-09-26T01:35:16.737Z,1.90
2022-09-26T01:38:40.616Z,1.90
2022-09-26T01:41:44.369Z,2.43
2022-09-26T01:44:52.841Z,2.00
2022-09-26T01:48:00.867Z,2.30
2022-09-26T01:50:48.854Z,2.53
2022-09-26T01:53:47.274Z,1.97
2022-09-26T01:56:21.249Z,1.87
2022-09-26T01:58:57.387Z,1.87
2022-09-26T02:01:32.657Z,2.20
2022-09-26T02:04:11.332Z,2.40
2022-09-26T02:06:51.719Z,2.60
2022-09-26T02:09:39.929Z,2.57
2022-09-26T02:12:12.163Z,2.80
2022-09-26T02:14:41.902Z,3.03
2022-09-26T02:17:14.067Z,3.00
2022-09-26T02:19:50.488Z,2.93
2022-09-26T02:22:20.514Z,3.07
2022-09-26T02:24:47.418Z,2.87
2022-09-26T02:27:14.384Z,3.40
2022-09-26T02:29:41.501Z,3.27
2022-09-26T02:32:16.286Z,2.90
2022-09-26T02:34:47.261Z,3.37
2022-09-26T02:37:17.724Z,3.23
2022-09-26T02:39:46.927Z,3.27
2022-09-26T02:42:38.635Z,3.13
2022-09-26T02:45:37.866Z,2.47
2022-09-26T02:48:25.786Z,2.47
2022-09-26T02:51:07.651Z,2.57
2022-09-26T02:54:16.947Z,2.40
2022-09-26T02:57:23.470Z,2.30
2022-09-26T03:00:10.990Z,2.53
2022-09-26T03:03:04.111Z,2.90
2022-09-26T03:05:33.331Z,2.53
2022-09-26T03:08:19.033Z,2.43
2022-09-26T03:10:50.309Z,2.87
2022-09-26T03:13:18.918Z,2.70
2022-09-26T03:15:51.835Z,2.60
2022-09-26T03:18:28.882Z,2.93
2022-09-26T03:20:57.422Z,2.40
2022-09-26T03:23:26.914Z,2.70
2022-09-26T03:26:10.758Z,2.87
2022-09-26T03:28:38.305Z,2.67
2022-09-26T03:31:05.860Z,2.93
2022-09-26T03:33:32.936Z,2.40
2022-09-26T03:36:00.587Z,2.83
2022-09-26T03:38:28.180Z,2.80
2022-09-26T03:40:58.554Z,2.33
2022-09-26T03:43:26.050Z,3.00
2022-09-26T03:45:53.015Z,2.50
2022-09-26T03:48:20.228Z,2.53
2022-09-26T03:50:47.280Z,2.47
2022-09-26T03:53:14.562Z,2.43
2022-09-26T03:55:41.479Z,3.03
2022-09-26T03:58:08.397Z,2.17
2022-09-26T04:00:35.425Z,2.17
2022-09-26T04:03:03.343Z,2.20
2022-09-26T04:05:30.372Z,2.40
2022-09-26T04:08:00.199Z,2.30
2022-09-26T04:10:27.778Z,2.17
2022-09-26T04:12:54.718Z,2.00
2022-09-26T04:15:21.606Z,2.33
2022-09-26T04:17:48.472Z,2.33
2022-09-26T04:20:15.803Z,1.90
2022-09-26T04:22:42.688Z,2.33
2022-09-26T04:25:10.309Z,2.07
2022-09-26T04:27:38.094Z,2.10
2022-09-26T04:30:06.192Z,1.97
2022-09-26T04:32:33.138Z,1.80
2022-09-26T04:35:00.058Z,1.70
2022-09-26T04:37:27.201Z,2.20
2022-09-26T04:39:54.181Z,1.87
2022-09-26T04:42:21.431Z,2.00
2022-09-26T04:44:48.370Z,1.60
2022-09-26T04:47:15.327Z,1.70
2022-09-26T04:49:43.038Z,1.60
2022-09-26T04:52:09.938Z,1.70
2022-09-26T04:54:37.460Z,1.53
2022-09-26T04:57:05.797Z,1.70
2022-09-26T04:59:32.957Z,1.90
2022-09-26T05:02:00.861Z,1.80
2022-09-26T05:04:28.025Z,1.60
2022-09-26T05:06:57.910Z,2.17
2022-09-26T05:09:25.429Z,1.73
2022-09-26T05:11:52.712Z,1.20
2022-09-26T05:14:19.695Z,1.50
2022-09-26T05:16:47.468Z,1.80
2022-09-26T05:19:14.605Z,1.80
2022-09-26T05:21:43.232Z,1.50
2022-09-26T05:24:28.992Z,1.87
2022-09-26T05:26:56.020Z,2.10
2022-09-26T05:29:23.079Z,1.63
2022-09-26T05:31:51.560Z,2.10
2022-09-26T05:34:20.049Z,1.57
2022-09-26T05:36:47.720Z,1.60
2022-09-26T05:39:33.139Z,1.50
2022-09-26T05:42:00.361Z,1.50
2022-09-26T05:44:28.335Z,1.50
2022-09-26T05:46:57.332Z,1.80
2022-09-26T05:49:25.179Z,1.60
2022-09-26T05:51:53.887Z,1.60
2022-09-26T05:54:21.228Z,2.03
2022-09-26T05:56:48.300Z,1.87
2022-09-26T05:59:15.418Z,2.00
2022-09-26T06:01:42.630Z,1.90
2022-09-26T06:04:10.556Z,1.90
2022-09-26T06:06:37.560Z,1.90
2022-09-26T06:09:07.243Z,1.70
2022-09-26T06:11:34.260Z,2.30
2022-09-26T06:14:01.339Z,1.77
2022-09-26T06:16:29.242Z,1.80
2022-09-26T06:18:56.232Z,1.97
2022-09-26T06:21:23.706Z,1.80
2022-09-26T06:23:50.919Z,1.80
2022-09-26T06:26:24.376Z,1.80
2022-09-26T06:29:00.481Z,1.60
2022-09-26T06:31:28.822Z,1.67
2022-09-26T06:33:56.301Z,2.00
2022-09-26T06:36:24.465Z,1.67
2022-09-26T06:38:52.093Z,2.07
2022-09-26T06:41:19.647Z,1.80
2022-09-26T06:43:53.076Z,1.70
2022-09-26T06:46:23.289Z,2.30
2022-09-26T06:48:52.977Z,1.97
2022-09-26T06:51:22.924Z,1.67
2022-09-26T06:54:00.583Z,1.60
2022-09-26T06:56:27.603Z,2.00
2022-09-26T06:59:04.269Z,1.70
2022-09-26T07:01:37.900Z,2.10
2022-09-26T07:04:10.777Z,1.80
2022-09-26T07:06:38.204Z,1.83
2022-09-26T07:09:09.770Z,1.73
2022-09-26T07:12:02.749Z,2.23
2022-09-26T07:14:25.861Z,2.00
2022-09-26T07:16:52.962Z,2.00
2022-09-26T07:19:20.160Z,1.80
2022-09-26T07:21:48.531Z,1.77
2022-09-26T07:24:15.433Z,1.97
2022-09-26T07:26:42.600Z,1.90
2022-09-26T07:29:10.430Z,1.80
2022-09-26T07:31:37.344Z,1.70
2022-09-26T07:34:04.772Z,1.70
2022-09-26T07:36:31.782Z,1.63
2022-09-26T07:38:58.813Z,1.90
2022-09-26T07:41:25.856Z,1.70
2022-09-26T07:44:46.163Z,1.53
2022-09-26T07:46:57.978Z,1.90
2022-09-26T07:49:43.421Z,1.83
2022-09-26T07:52:14.082Z,2.20
2022-09-26T07:54:42.435Z,1.90
2022-09-26T07:57:09.348Z,2.00
2022-09-26T07:59:36.814Z,1.77
2022-09-26T08:02:06.774Z,1.77
2022-09-26T08:04:33.866Z,2.43
2022-09-26T08:07:00.951Z,2.00
2022-09-26T08:09:28.531Z,1.67
2022-09-26T08:11:56.500Z,2.00
2022-09-26T08:14:23.417Z,1.50
2022-09-26T08:16:55.801Z,1.60
2022-09-26T08:19:23.054Z,2.07
2022-09-26T08:21:50.097Z,2.60
2022-09-26T08:24:17.182Z,2.07
2022-09-26T08:26:44.810Z,2.30
2022-09-26T08:29:12.405Z,1.97
2022-09-26T08:31:39.790Z,2.27
2022-09-26T08:34:08.117Z,1.90
2022-09-26T08:36:37.599Z,2.00
2022-09-26T08:39:05.306Z,1.70
2022-09-26T08:41:56.374Z,1.50
2022-09-26T08:44:54.088Z,2.03
2022-09-26T08:47:43.008Z,2.03
2022-09-26T08:50:35.494Z,2.00
2022-09-26T08:53:13.563Z,2.40
2022-09-26T08:55:45.204Z,2.20
2022-09-26T08:58:29.039Z,2.20
2022-09-26T09:01:05.268Z,2.03
2022-09-26T09:03:37.997Z,2.07
2022-09-26T09:06:11.648Z,2.00
2022-09-26T09:08:44.289Z,1.80
2022-09-26T09:11:22.873Z,1.90
2022-09-26T09:14:29.518Z,2.10
2022-09-26T09:17:48.393Z,2.03
2022-09-26T09:20:34.373Z,1.83
2022-09-26T09:23:31.506Z,2.97
2022-09-26T09:29:33.297Z,2.33
2022-09-26T09:32:03.840Z,1.87
2022-09-26T09:34:39.241Z,2.20
2022-09-26T09:37:19.584Z,2.63
2022-09-26T09:39:50.115Z,1.87
2022-09-26T09:42:36.494Z,2.03
2022-09-26T09:45:15.643Z,2.17
2022-09-26T09:47:42.742Z,2.20
2022-09-26T09:50:20.044Z,2.80
2022-09-26T09:53:23.426Z,2.53
2022-09-26T09:56:16.530Z,2.80
2022-09-26T09:59:23.806Z,2.27
2022-09-26T10:02:12.353Z,2.30
2022-09-26T10:04:46.800Z,2.20
2022-09-26T10:07:13.797Z,2.30
2022-09-26T10:09:43.914Z,2.33
2022-09-26T10:12:19.050Z,2.57
2022-09-26T10:15:21.637Z,2.90
2022-09-26T10:18:24.697Z,2.50
2022-09-26T10:20:57.403Z,2.80
2022-09-26T10:23:40.513Z,2.43
2022-09-26T10:26:10.814Z,2.80
2022-09-26T10:28:50.186Z,3.47
2022-09-26T10:31:29.996Z,3.43
2022-09-26T10:34:05.642Z,3.57
2022-09-26T10:36:37.160Z,3.80
2022-09-26T10:39:39.697Z,4.10
2022-09-26T10:42:27.531Z,3.70
2022-09-26T10:45:00.158Z,3.80
2022-09-26T10:47:29.888Z,3.70
2022-09-26T10:50:03.430Z,3.80
2022-09-26T10:52:38.760Z,3.27
2022-09-26T10:55:46.310Z,3.30
2022-09-26T10:58:36.396Z,3.63
2022-09-26T11:01:05.880Z,2.97
2022-09-26T11:03:45.876Z,2.70
2022-09-26T11:06:34.898Z,3.10
2022-09-26T11:09:04.094Z,3.07
2022-09-26T11:11:39.132Z,3.10
2022-09-26T11:14:08.680Z,2.77
2022-09-26T11:16:54.040Z,2.70
2022-09-26T11:19:35.907Z,2.80
2022-09-26T11:22:42.578Z,2.57
2022-09-26T11:25:24.214Z,2.40
2022-09-26T11:28:05.141Z,2.40
2022-09-26T11:30:40.866Z,2.13
2022-09-26T11:33:13.584Z,2.10
2022-09-26T11:36:18.099Z,2.40
2022-09-26T11:38:56.634Z,1.93
2022-09-26T11:41:55.882Z,2.03
2022-09-26T11:45:11.307Z,2.10
2022-09-26T11:48:06.754Z,2.00
2022-09-26T11:51:01.395Z,1.70
2022-09-26T11:53:31.231Z,1.63
2022-09-26T11:56:41.485Z,1.87
2022-09-26T11:59:53.738Z,1.53
2022-09-26T12:02:51.548Z,1.67
2022-09-26T12:05:36.670Z,1.40
2022-09-26T12:08:32.016Z,1.50
2022-09-26T12:11:26.915Z,1.70
2022-09-26T12:14:02.483Z,1.80
2022-09-26T12:16:52.445Z,1.50
2022-09-26T12:19:51.071Z,1.70
2022-09-26T12:22:49.974Z,1.80
2022-09-26T12:25:47.917Z,2.37
2022-09-26T12:28:50.785Z,2.53
2022-09-26T12:31:43.932Z,2.17
2022-09-26T12:34:41.752Z,2.20
2022-09-26T12:37:32.721Z,2.30
2022-09-26T12:40:31.184Z,2.33
2022-09-26T12:43:19.267Z,2.50
2022-09-26T12:46:30.014Z,2.63
2022-09-26T12:49:42.084Z,2.07
2022-09-26T12:52:39.741Z,2.23
2022-09-26T12:55:49.123Z,2.60
2022-09-26T12:58:38.774Z,2.27
2022-09-26T13:01:36.005Z,2.73
2022-09-26T13:04:53.081Z,2.73
2022-09-26T13:08:15.801Z,2.00
2022-09-26T13:11:13.188Z,2.10
2022-09-26T13:14:21.181Z,2.90
2022-09-26T13:17:10.155Z,2.07
2022-09-26T13:19:51.505Z,2.10
2022-09-26T13:22:41.490Z,2.10
2022-09-26T13:25:23.710Z,2.90
2022-09-26T13:28:07.177Z,3.47
2022-09-26T13:30:48.298Z,2.60
2022-09-26T13:33:25.486Z,3.10
2022-09-26T13:35:59.813Z,4.00
2022-09-26T13:38:53.965Z,3.33
2022-09-26T13:41:48.746Z,2.90
2022-09-26T13:44:44.707Z,2.30
2022-09-26T13:47:41.330Z,2.33
2022-09-26T13:50:14.992Z,2.40
2022-09-26T13:53:06.764Z,2.57
2022-09-26T13:55:34.441Z,2.10
2022-09-26T13:58:08.155Z,2.70
2022-09-26T14:00:41.605Z,3.00
2022-09-26T14:03:16.305Z,3.07
2022-09-26T14:05:43.696Z,2.53
2022-09-26T14:08:44.733Z,2.53
2022-09-26T14:11:30.605Z,2.20
2022-09-26T14:14:16.924Z,2.10
2022-09-26T14:17:42.251Z,2.43
2022-09-26T14:20:33.964Z,2.73
2022-09-26T14:23:03.109Z,2.30
2022-09-26T14:25:45.339Z,2.20
2022-09-26T14:28:34.948Z,2.10
2022-09-26T14:31:37.222Z,2.73
2022-09-26T14:34:22.745Z,2.53
2022-09-26T14:36:53.098Z,2.77
2022-09-26T14:39:28.633Z,2.67
2022-09-26T14:41:58.549Z,4.90
2022-09-26T14:44:34.991Z,6.43
2022-09-26T14:47:13.403Z,4.57
2022-09-26T14:49:40.765Z,4.30
2022-09-26T14:52:18.967Z,3.83
2022-09-26T14:54:47.563Z,3.53
2022-09-26T14:57:32.075Z,4.10
2022-09-26T15:00:01.258Z,4.70
2022-09-26T15:02:40.472Z,4.80
2022-09-26T15:05:10.156Z,4.47
2022-09-26T15:07:46.068Z,4.30
2022-09-26T15:10:41.235Z,4.60
2022-09-26T15:13:18.723Z,5.53
2022-09-26T15:15:57.885Z,5.83
2022-09-26T15:18:27.747Z,5.27
2022-09-26T15:21:23.322Z,5.10
2022-09-26T15:23:53.665Z,5.73
2022-09-26T15:26:27.859Z,4.80
2022-09-26T15:28:56.811Z,4.83
2022-09-26T15:31:41.379Z,4.43
2022-09-26T15:34:17.946Z,5.00
2022-09-26T15:36:54.300Z,4.30
2022-09-26T15:39:33.445Z,3.70
2022-09-26T15:42:45.684Z,4.60
2022-09-26T15:45:47.914Z,3.90
2022-09-26T15:48:20.699Z,4.00
2022-09-26T15:51:07.505Z,4.30
2022-09-26T15:53:34.379Z,4.90
2022-09-26T15:56:12.934Z,4.87
2022-09-26T15:58:39.764Z,4.80
2022-09-26T16:01:08.577Z,5.90
2022-09-26T16:03:45.439Z,5.13
2022-09-26T16:06:24.041Z,4.83
2022-09-26T16:09:00.521Z,5.53
2022-09-26T16:11:28.578Z,3.97
2022-09-26T16:13:56.713Z,5.27
2022-09-26T16:16:34.530Z,4.50
2022-09-26T16:19:04.086Z,4.23
2022-09-26T16:21:36.365Z,4.53
2022-09-26T16:24:34.150Z,5.10
2022-09-26T16:27:01.172Z,4.87
2022-09-26T16:29:38.887Z,5.10
2022-09-26T16:32:06.215Z,4.23
2022-09-26T16:34:33.267Z,4.63
2022-09-26T16:37:00.481Z,4.83
2022-09-26T16:39:31.047Z,5.23
2022-09-26T16:42:07.406Z,4.37
2022-09-26T16:44:40.391Z,4.00
2022-09-26T16:47:43.162Z,4.20
2022-09-26T16:50:26.663Z,5.20
2022-09-26T16:52:54.936Z,5.70
2022-09-26T16:55:23.050Z,4.80
2022-09-26T16:57:59.168Z,3.50
2022-09-26T17:00:52.214Z,5.13
2022-09-26T17:03:25.256Z,3.97
2022-09-26T17:05:55.689Z,4.47
2022-09-26T17:08:25.446Z,3.77
2022-09-26T17:10:56.289Z,4.47
2022-09-26T17:13:26.394Z,3.80
2022-09-26T17:16:01.159Z,3.90
2022-09-26T17:18:33.943Z,3.73
2022-09-26T17:21:07.456Z,3.00
2022-09-26T17:23:41.071Z,2.07
2022-09-26T17:26:19.505Z,1.73
2022-09-26T17:28:46.873Z,2.10
2022-09-26T17:31:20.912Z,2.50
2022-09-26T17:33:52.719Z,2.30
2022-09-26T17:36:24.892Z,2.50
2022-09-26T17:38:51.950Z,2.10
2022-09-26T17:41:19.031Z,1.97
2022-09-26T17:43:46.230Z,2.00
2022-09-26T17:46:16.261Z,1.90
2022-09-26T17:48:44.734Z,2.80
2022-09-26T17:51:14.125Z,2.10
2022-09-26T17:53:50.195Z,2.70
2022-09-26T17:56:19.304Z,3.43
2022-09-26T17:58:49.041Z,2.47
2022-09-26T18:01:31.671Z,2.80
2022-09-26T18:04:03.966Z,2.30
2022-09-26T18:06:33.375Z,9.33
2022-09-26T18:09:05.783Z,9.90
2022-09-26T18:11:34.653Z,3.77
2022-09-26T18:14:07.377Z,5.53
2022-09-26T18:16:34.447Z,4.63
2022-09-26T18:19:06.734Z,4.13
2022-09-26T18:21:35.007Z,7.80
2022-09-26T18:24:06.438Z,5.73
2022-09-26T18:26:47.400Z,5.70
2022-09-26T18:29:37.858Z,3.47
2022-09-26T18:32:24.551Z,2.30
2022-09-26T18:34:51.836Z,2.00
2022-09-26T18:37:18.768Z,2.37
2022-09-26T18:39:54.342Z,2.80
2022-09-26T18:42:24.432Z,2.93
2022-09-26T18:45:04.253Z,2.50
2022-09-26T18:47:38.895Z,2.30
2022-09-26T18:50:07.092Z,2.87
2022-09-26T18:52:34.776Z,3.20
2022-09-26T18:55:20.237Z,3.20
2022-09-26T18:58:08.550Z,2.70
2022-09-26T19:00:36.345Z,2.40
2022-09-26T19:03:04.769Z,2.00
2022-09-26T19:05:32.344Z,2.20
2022-09-26T19:07:59.436Z,2.07
2022-09-26T19:10:27.102Z,1.90
2022-09-26T19:12:56.578Z,2.27
2022-09-26T19:15:23.728Z,1.80
2022-09-26T19:17:51.048Z,2.10
2022-09-26T19:20:18.009Z,1.80
2022-09-26T19:22:45.029Z,1.90
2022-09-26T19:25:12.014Z,1.43
2022-09-26T19:27:48.790Z,1.93
2022-09-26T19:30:21.557Z,2.00
2022-09-26T19:32:52.316Z,1.93
2022-09-26T19:35:22.142Z,1.50
2022-09-26T19:37:49.288Z,1.67
2022-09-26T19:40:19.472Z,1.60
2022-09-26T19:42:46.586Z,1.50
2022-09-26T19:45:15.234Z,1.30
2022-09-26T19:47:47.514Z,1.27
2022-09-26T19:50:25.979Z,1.63
2022-09-26T19:52:56.088Z,1.60
2022-09-26T19:55:27.541Z,1.73
2022-09-26T19:57:57.990Z,1.40
2022-09-26T20:00:26.310Z,1.40
2022-09-26T20:02:54.564Z,1.60
2022-09-26T20:05:25.043Z,1.43
2022-09-26T20:07:52.474Z,1.50
2022-09-26T20:10:28.070Z,1.70
2022-09-26T20:12:55.507Z,1.40
2022-09-26T20:15:22.545Z,1.80
2022-09-26T20:17:50.908Z,1.63
2022-09-26T20:20:23.787Z,1.20
2022-09-26T20:22:53.498Z,1.13
2022-09-26T20:25:31.013Z,1.10
2022-09-26T20:28:03.408Z,1.20
2022-09-26T20:30:49.310Z,1.50
2022-09-26T20:33:17.300Z,1.00
2022-09-26T20:35:47.901Z,1.07
2022-09-26T20:38:38.444Z,0.80
2022-09-26T20:41:24.635Z,1.70
2022-09-26T20:44:01.866Z,0.90
2022-09-26T20:46:34.478Z,1.37
2022-09-26T20:49:05.874Z,1.20
2022-09-26T20:51:36.010Z,1.30
2022-09-26T20:54:03.695Z,1.07
2022-09-26T20:56:33.923Z,1.13
2022-09-26T20:59:00.906Z,1.03
2022-09-26T21:01:28.813Z,0.93
2022-09-26T21:03:56.993Z,1.00
2022-09-26T21:06:30.590Z,1.10
2022-09-26T21:09:01.324Z,1.00
2022-09-26T21:11:28.333Z,1.20
2022-09-26T21:13:55.596Z,0.90
2022-09-26T21:16:22.867Z,1.03
2022-09-26T21:18:52.281Z,1.00
2022-09-26T21:21:29.579Z,1.37
2022-09-26T21:23:59.103Z,1.10
2022-09-26T21:26:28.760Z,1.17
2022-09-26T21:28:59.543Z,1.27
2022-09-26T21:31:31.854Z,1.10
2022-09-26T21:34:00.363Z,1.20
2022-09-26T21:36:35.292Z,1.10
2022-09-26T21:39:03.127Z,1.10
2022-09-26T21:41:30.469Z,1.23
2022-09-26T21:44:12.857Z,1.27
2022-09-26T21:46:45.909Z,1.20
2022-09-26T21:49:15.291Z,1.40
2022-09-26T21:51:44.801Z,1.27
2022-09-26T21:54:28.051Z,1.50
2022-09-26T21:57:06.927Z,1.20
2022-09-26T21:59:39.095Z,1.67
2022-09-26T22:02:12.186Z,1.70
2022-09-26T22:04:42.534Z,1.40
2022-09-26T22:07:09.539Z,1.40
2022-09-26T22:09:38.207Z,1.20
2022-09-26T22:12:07.694Z,1.60
2022-09-26T22:14:34.616Z,1.30
2022-09-26T22:17:01.917Z,1.00
2022-09-26T22:19:33.304Z,1.30
2022-09-26T22:22:05.098Z,1.33
2022-09-26T22:24:32.936Z,1.07
2022-09-26T22:26:59.918Z,2.10
2022-09-26T22:29:27.485Z,1.23
2022-09-26T22:31:54.421Z,1.90
2022-09-26T22:34:26.444Z,2.00
2022-09-26T22:36:53.507Z,1.33
2022-09-26T22:39:20.525Z,1.40
2022-09-26T22:41:52.350Z,1.50
2022-09-26T22:44:19.676Z,1.27
2022-09-26T22:46:46.732Z,1.40
2022-09-26T22:49:13.761Z,1.53
2022-09-26T22:51:41.412Z,1.30
2022-09-26T22:54:08.389Z,1.40
2022-09-26T22:56:35.310Z,1.27
2022-09-26T22:59:03.269Z,1.70
2022-09-26T23:01:30.468Z,1.60
2022-09-26T23:03:58.899Z,1.30
2022-09-26T23:06:35.113Z,1.30
2022-09-26T23:09:02.097Z,1.37
2022-09-26T23:11:31.409Z,1.70
2022-09-26T23:13:58.377Z,1.30
2022-09-26T23:16:28.853Z,1.30
2022-09-26T23:18:59.384Z,1.47
2022-09-26T23:21:27.948Z,1.53
2022-09-26T23:23:57.448Z,2.00
2022-09-26T23:26:31.937Z,2.00
2022-09-26T23:29:00.143Z,1.90
2022-09-26T23:31:33.813Z,2.00
2022-09-26T23:34:07.065Z,1.70
2022-09-26T23:36:36.569Z,1.47
2022-09-26T23:39:04.213Z,1.97
2022-09-26T23:41:31.153Z,1.90
2022-09-26T23:43:58.191Z,2.43
2022-09-26T23:46:31.422Z,2.23
2022-09-26T23:49:07.184Z,2.27
2022-09-26T23:51:34.211Z,2.20
2022-09-26T23:54:03.901Z,2.20
2022-09-26T23:56:30.870Z,2.33
2022-09-26T23:58:57.909Z,2.10
